createdAt,value
2018-06-25T00:00:08.478Z,12.02
2018-06-25T00:01:18.623Z,11.99
2018-06-25T00:02:28.765Z,12.05
2018-06-25T00:03:38.942Z,12.05
2018-06-25T00:04:49.093Z,12.02
2018-06-25T00:05:59.285Z,11.94
2018-06-25T00:07:09.456Z,12.04
2018-06-25T00:08:19.661Z,12.07
2018-06-25T00:09:29.827Z,12.04
2018-06-25T00:10:39.962Z,11.99
2018-06-25T00:11:50.152Z,12.05
2018-06-25T00:13:00.309Z,12.01
2018-06-25T00:14:10.452Z,11.98
2018-06-25T00:15:20.271Z,12.01
2018-06-25T00:16:30.489Z,11.91
2018-06-25T00:17:40.414Z,11.89
2018-06-25T00:18:50.543Z,11.91
2018-06-25T00:20:00.420Z,11.89
2018-06-25T00:21:10.626Z,11.9
2018-06-25T00:22:20.642Z,11.89
2018-06-25T00:23:30.801Z,11.89
2018-06-25T00:24:41.016Z,11.87
2018-06-25T00:25:51.253Z,11.9
2018-06-25T00:27:01.412Z,11.83
2018-06-25T00:28:11.599Z,11.82
2018-06-25T00:29:21.833Z,11.74
2018-06-25T00:30:32.040Z,11.74
2018-06-25T00:31:42.258Z,11.79
2018-06-25T00:32:52.430Z,11.8
2018-06-25T00:34:02.882Z,11.76
2018-06-25T00:35:13.017Z,11.69
2018-06-25T00:36:23.211Z,11.76
2018-06-25T00:37:33.359Z,11.65
2018-06-25T00:38:43.521Z,11.69
2018-06-25T00:39:54.009Z,11.69
2018-06-25T00:41:04.348Z,11.69
2018-06-25T00:42:14.528Z,11.74
2018-06-25T00:43:24.665Z,11.68
2018-06-25T00:44:34.821Z,11.65
2018-06-25T00:45:44.842Z,11.74
2018-06-25T00:46:55.088Z,11.66
2018-06-25T00:48:05.343Z,11.68
2018-06-25T00:49:15.492Z,11.72
2018-06-25T00:50:25.784Z,11.65
2018-06-25T00:51:36.120Z,11.59
2018-06-25T00:52:46.573Z,11.65
2018-06-25T00:53:56.705Z,11.66
2018-06-25T00:55:06.880Z,11.59
2018-06-25T00:56:17.017Z,11.58
2018-06-25T00:57:27.144Z,11.62
2018-06-25T00:58:37.492Z,11.59
2018-06-25T00:59:47.658Z,11.57
2018-06-25T01:00:57.853Z,11.62
2018-06-25T01:02:08.137Z,11.61
2018-06-25T01:03:18.031Z,11.61
2018-06-25T01:04:28.196Z,11.62
2018-06-25T01:05:38.367Z,11.58
2018-06-25T01:06:48.552Z,11.61
2018-06-25T01:07:58.854Z,11.61
2018-06-25T01:09:08.999Z,11.57
2018-06-25T01:10:19.186Z,11.53
2018-06-25T01:11:29.329Z,11.49
2018-06-25T01:12:39.488Z,11.58
2018-06-25T01:13:49.649Z,11.45
2018-06-25T01:14:59.890Z,11.43
2018-06-25T01:16:10.095Z,11.46
2018-06-25T01:17:20.230Z,11.48
2018-06-25T01:18:30.407Z,11.48
2018-06-25T01:19:40.567Z,11.58
2018-06-25T01:20:50.697Z,11.57
2018-06-25T01:22:01.071Z,11.61
2018-06-25T01:23:11.237Z,11.48
2018-06-25T01:24:21.368Z,11.59
2018-06-25T01:25:30.892Z,11.59
2018-06-25T01:26:41.186Z,11.59
2018-06-25T01:27:51.519Z,11.64
2018-06-25T01:29:01.719Z,11.64
2018-06-25T01:30:11.480Z,11.61
2018-06-25T01:31:21.350Z,11.59
2018-06-25T01:32:31.498Z,11.59
2018-06-25T01:33:41.675Z,11.64
2018-06-25T01:34:51.886Z,11.58
2018-06-25T01:36:02.035Z,11.59
2018-06-25T01:37:11.927Z,11.62
2018-06-25T01:38:21.753Z,11.57
2018-06-25T01:39:31.952Z,11.62
2018-06-25T01:40:42.183Z,11.52
2018-06-25T01:41:52.318Z,11.5
2018-06-25T01:43:02.559Z,11.61
2018-06-25T01:44:12.717Z,11.62
2018-06-25T01:45:23.086Z,11.62
2018-06-25T01:46:33.196Z,11.68
2018-06-25T01:47:43.375Z,11.62
2018-06-25T01:48:53.530Z,11.58
2018-06-25T01:50:03.755Z,11.58
2018-06-25T01:51:13.897Z,11.64
2018-06-25T01:52:23.790Z,11.61
2018-06-25T01:53:33.957Z,11.68
2018-06-25T01:54:44.031Z,11.69
2018-06-25T01:55:54.207Z,11.65
2018-06-25T01:57:04.415Z,11.72
2018-06-25T01:58:14.545Z,11.62
2018-06-25T01:59:24.658Z,11.59
2018-06-25T02:00:34.884Z,11.58
2018-06-25T02:01:45.041Z,11.58
2018-06-25T02:02:55.201Z,11.68
2018-06-25T02:04:05.393Z,11.69
2018-06-25T02:05:15.523Z,11.66
2018-06-25T02:06:25.936Z,11.64
2018-06-25T02:07:36.074Z,11.61
2018-06-25T02:08:46.248Z,11.62
2018-06-25T02:09:56.431Z,11.66
2018-06-25T02:11:06.593Z,11.62
2018-06-25T02:12:16.495Z,11.66
2018-06-25T02:13:26.667Z,11.65
2018-06-25T02:14:36.897Z,11.65
2018-06-25T02:15:46.904Z,11.62
2018-06-25T02:16:57.044Z,11.69
2018-06-25T02:18:07.188Z,11.59
2018-06-25T02:19:17.361Z,11.57
2018-06-25T02:20:27.519Z,11.61
2018-06-25T02:21:37.707Z,11.68
2018-06-25T02:22:47.962Z,11.53
2018-06-25T02:23:58.090Z,11.59
2018-06-25T02:25:08.237Z,11.64
2018-06-25T02:26:18.345Z,11.64
2018-06-25T02:27:28.266Z,11.61
2018-06-25T02:28:38.626Z,11.5
2018-06-25T02:29:48.803Z,11.59
2018-06-25T02:30:59.014Z,11.49
2018-06-25T02:32:09.307Z,11.45
2018-06-25T02:33:19.540Z,11.46
2018-06-25T02:34:29.442Z,11.48
2018-06-25T02:35:39.557Z,11.43
2018-06-25T02:36:49.729Z,11.49
2018-06-25T02:37:59.510Z,11.5
2018-06-25T02:39:09.389Z,11.49
2018-06-25T02:40:18.764Z,11.48
2018-06-25T02:41:28.643Z,11.46
2018-06-25T02:42:38.825Z,11.53
2018-06-25T02:43:49.042Z,11.49
2018-06-25T02:44:59.262Z,11.57
2018-06-25T02:46:09.437Z,11.53
2018-06-25T02:47:19.574Z,11.57
2018-06-25T02:48:29.776Z,11.58
2018-06-25T02:49:39.949Z,11.43
2018-06-25T02:50:49.872Z,11.48
2018-06-25T02:52:00.103Z,11.46
2018-06-25T02:53:10.390Z,11.46
2018-06-25T02:54:20.640Z,11.43
2018-06-25T02:55:30.814Z,11.39
2018-06-25T02:56:41.012Z,11.45
2018-06-25T02:57:51.493Z,11.46
2018-06-25T02:59:01.649Z,11.39
2018-06-25T03:00:12.098Z,11.39
2018-06-25T03:01:22.261Z,11.45
2018-06-25T03:02:32.752Z,11.45
2018-06-25T03:03:42.874Z,11.31
2018-06-25T03:04:53.244Z,11.38
2018-06-25T03:06:03.397Z,11.35
2018-06-25T03:07:13.569Z,11.3
2018-06-25T03:08:23.466Z,11.3
2018-06-25T03:09:33.627Z,11.28
2018-06-25T03:10:44.023Z,11.28
2018-06-25T03:11:54.198Z,11.33
2018-06-25T03:13:04.326Z,11.3
2018-06-25T03:14:14.481Z,11.21
2018-06-25T03:15:24.628Z,11.3
2018-06-25T03:16:34.779Z,11.3
2018-06-25T03:17:45.102Z,11.25
2018-06-25T03:18:55.290Z,11.3
2018-06-25T03:20:05.495Z,11.16
2018-06-25T03:21:15.647Z,11.16
2018-06-25T03:22:25.835Z,11.16
2018-06-25T03:23:36.078Z,11.21
2018-06-25T03:24:46.317Z,11.13
2018-06-25T03:25:56.569Z,11.23
2018-06-25T03:27:06.788Z,11.13
2018-06-25T03:28:17.046Z,11.24
2018-06-25T03:29:27.207Z,11.13
2018-06-25T03:30:37.095Z,11.2
2018-06-25T03:31:47.290Z,11.2
2018-06-25T03:32:57.427Z,11.25
2018-06-25T03:34:07.644Z,11.25
2018-06-25T03:35:17.796Z,11.17
2018-06-25T03:36:28.060Z,11.25
2018-06-25T03:37:38.241Z,11.24
2018-06-25T03:38:48.426Z,11.16
2018-06-25T03:39:58.601Z,11.17
2018-06-25T03:41:08.810Z,11.15
2018-06-25T03:42:18.980Z,11.16
2018-06-25T03:43:29.235Z,11.23
2018-06-25T03:44:39.571Z,11.17
2018-06-25T03:45:49.152Z,11.25
2018-06-25T03:46:59.327Z,11.16
2018-06-25T03:48:09.111Z,11.17
2018-06-25T03:49:19.244Z,11.23
2018-06-25T03:50:29.395Z,11.2
2018-06-25T03:51:39.279Z,11.21
2018-06-25T03:52:49.413Z,11.16
2018-06-25T03:53:59.567Z,11.28
2018-06-25T03:55:09.720Z,11.33
2018-06-25T03:56:19.908Z,11.33
2018-06-25T03:57:30.343Z,11.28
2018-06-25T03:58:40.480Z,11.25
2018-06-25T03:59:50.639Z,11.2
2018-06-25T04:01:00.862Z,11.16
2018-06-25T04:02:11.178Z,11.27
2018-06-25T04:03:21.335Z,11.17
2018-06-25T04:04:31.451Z,11.33
2018-06-25T04:05:41.865Z,11.34
2018-06-25T04:06:51.739Z,11.25
2018-06-25T04:08:02.016Z,11.38
2018-06-25T04:09:12.198Z,11.38
2018-06-25T04:10:22.337Z,11.33
2018-06-25T04:11:32.475Z,11.28
2018-06-25T04:12:42.272Z,11.34
2018-06-25T04:13:52.620Z,11.28
2018-06-25T04:15:02.989Z,11.42
2018-06-25T04:16:13.207Z,11.39
2018-06-25T04:17:22.895Z,11.4
2018-06-25T04:18:33.033Z,11.5
2018-06-25T04:19:43.189Z,11.38
2018-06-25T04:20:53.428Z,11.43
2018-06-25T04:22:03.601Z,11.43
2018-06-25T04:23:13.842Z,11.48
2018-06-25T04:24:23.778Z,11.48
2018-06-25T04:25:33.944Z,11.5
2018-06-25T04:26:44.185Z,11.48
2018-06-25T04:27:54.375Z,11.52
2018-06-25T04:29:04.261Z,11.64
2018-06-25T04:30:14.384Z,11.65
2018-06-25T04:31:24.627Z,11.62
2018-06-25T04:32:34.765Z,11.66
2018-06-25T04:33:44.914Z,11.76
2018-06-25T04:34:55.084Z,11.76
2018-06-25T04:36:05.211Z,11.8
2018-06-25T04:37:14.902Z,11.82
2018-06-25T04:38:25.034Z,11.91
2018-06-25T04:39:35.179Z,11.89
2018-06-25T04:40:45.099Z,11.9
2018-06-25T04:41:56.249Z,11.89
2018-06-25T04:43:06.735Z,12.02
2018-06-25T04:44:16.894Z,11.97
2018-06-25T04:45:27.110Z,11.97
2018-06-25T04:46:37.307Z,11.98
2018-06-25T04:47:47.316Z,12.07
2018-06-25T04:48:57.489Z,12.05
2018-06-25T04:50:07.390Z,12.11
2018-06-25T04:51:17.533Z,12.07
2018-06-25T04:52:27.672Z,12.16
2018-06-25T04:53:37.884Z,12.19
2018-06-25T04:54:48.052Z,12.19
2018-06-25T04:55:58.271Z,12.24
2018-06-25T04:57:08.531Z,12.26
2018-06-25T04:58:18.696Z,12.32
2018-06-25T04:59:28.895Z,12.23
2018-06-25T05:00:39.037Z,12.27
2018-06-25T05:01:49.196Z,12.22
2018-06-25T05:02:59.581Z,12.23
2018-06-25T05:04:09.836Z,12.26
2018-06-25T05:05:20.155Z,12.31
2018-06-25T05:06:30.332Z,12.34
2018-06-25T05:07:40.583Z,12.23
2018-06-25T05:08:50.845Z,12.29
2018-06-25T05:10:01.181Z,12.32
2018-06-25T05:11:11.367Z,12.32
2018-06-25T05:12:21.520Z,12.41
2018-06-25T05:13:31.661Z,12.39
2018-06-25T05:14:41.532Z,12.38
2018-06-25T05:15:51.681Z,12.47
2018-06-25T05:17:01.831Z,12.55
2018-06-25T05:18:12.091Z,12.57
2018-06-25T05:19:22.249Z,12.55
2018-06-25T05:20:31.890Z,12.57
2018-06-25T05:21:42.109Z,12.56
2018-06-25T05:22:52.548Z,12.56
2018-06-25T05:24:02.691Z,12.57
2018-06-25T05:25:12.654Z,12.53
2018-06-25T05:26:22.873Z,12.62
2018-06-25T05:27:33.266Z,12.63
2018-06-25T05:28:43.481Z,12.63
2018-06-25T05:29:53.713Z,12.64
2018-06-25T05:31:03.944Z,12.6
2018-06-25T05:32:14.283Z,12.59
2018-06-25T05:33:24.435Z,12.62
2018-06-25T05:34:34.604Z,12.72
2018-06-25T05:35:44.838Z,12.75
2018-06-25T05:36:54.992Z,12.81
2018-06-25T05:38:04.938Z,12.82
2018-06-25T05:39:15.161Z,12.84
2018-06-25T05:40:25.296Z,12.81
2018-06-25T05:41:35.483Z,12.82
2018-06-25T05:42:45.736Z,12.93
2018-06-25T05:43:55.898Z,12.93
2018-06-25T05:45:06.138Z,12.95
2018-06-25T05:46:16.390Z,13.03
2018-06-25T05:47:26.614Z,13.11
2018-06-25T05:48:36.827Z,13.03
2018-06-25T05:49:47.065Z,13.11
2018-06-25T05:50:57.305Z,13.15
2018-06-25T05:52:07.706Z,13.12
2018-06-25T05:53:17.910Z,13.23
2018-06-25T05:54:28.075Z,13.22
2018-06-25T05:55:37.868Z,13.34
2018-06-25T05:56:48.045Z,13.31
2018-06-25T05:57:58.185Z,13.19
2018-06-25T05:59:08.433Z,13.26
2018-06-25T06:00:18.596Z,13.26
2018-06-25T06:01:28.750Z,13.26
2018-06-25T06:02:38.991Z,13.31
2018-06-25T06:03:49.131Z,13.36
2018-06-25T06:04:59.261Z,13.41
2018-06-25T06:06:09.463Z,13.36
2018-06-25T06:07:19.635Z,13.45
2018-06-25T06:08:29.772Z,13.36
2018-06-25T06:09:39.911Z,13.44
2018-06-25T06:10:49.843Z,13.38
2018-06-25T06:12:00.012Z,13.44
2018-06-25T06:13:10.175Z,13.33
2018-06-25T06:14:20.325Z,13.33
2018-06-25T06:15:30.453Z,13.31
2018-06-25T06:16:40.696Z,13.27
2018-06-25T06:17:50.834Z,13.21
2018-06-25T06:19:01.041Z,13.15
2018-06-25T06:20:11.280Z,13.15
2018-06-25T06:21:21.438Z,13.12
2018-06-25T06:22:31.640Z,13.22
2018-06-25T06:23:41.800Z,13.21
2018-06-25T06:24:51.797Z,13.37
2018-06-25T06:26:01.867Z,13.34
2018-06-25T06:27:11.988Z,13.41
2018-06-25T06:28:22.115Z,13.45
2018-06-25T06:29:32.235Z,13.61
2018-06-25T06:30:42.417Z,13.64
2018-06-25T06:31:52.592Z,13.66
2018-06-25T06:33:02.836Z,13.7
2018-06-25T06:34:13.236Z,13.76
2018-06-25T06:35:23.469Z,13.74
2018-06-25T06:36:34.607Z,13.79
2018-06-25T06:37:44.736Z,13.77
2018-06-25T06:38:55.009Z,13.79
2018-06-25T06:40:05.313Z,13.81
2018-06-25T06:41:15.689Z,13.84
2018-06-25T06:42:26.053Z,13.81
2018-06-25T06:43:36.323Z,13.77
2018-06-25T06:44:46.506Z,13.74
2018-06-25T06:45:57.226Z,13.66
2018-06-25T06:47:07.374Z,13.64
2018-06-25T06:48:17.508Z,13.56
2018-06-25T06:49:27.667Z,13.56
2018-06-25T06:50:37.829Z,13.61
2018-06-25T06:51:47.986Z,13.71
2018-06-25T06:52:58.171Z,13.79
2018-06-25T06:54:08.039Z,13.82
2018-06-25T06:55:18.164Z,13.89
2018-06-25T06:56:28.529Z,13.91
2018-06-25T06:57:39.148Z,14
2018-06-25T06:58:49.513Z,14.02
2018-06-25T06:59:59.685Z,14.11
2018-06-25T07:01:09.838Z,14.1
2018-06-25T07:02:19.980Z,14.14
2018-06-25T07:03:30.234Z,14.28
2018-06-25T07:04:40.318Z,14.22
2018-06-25T07:05:50.634Z,14.24
2018-06-25T07:07:00.801Z,14.43
2018-06-25T07:08:10.992Z,14.47
2018-06-25T07:09:20.898Z,14.4
2018-06-25T07:10:31.063Z,14.56
2018-06-25T07:11:41.234Z,14.51
2018-06-25T07:12:51.602Z,14.51
2018-06-25T07:14:01.807Z,14.63
2018-06-25T07:15:12.947Z,14.65
2018-06-25T07:16:23.090Z,14.62
2018-06-25T07:17:33.223Z,14.54
2018-06-25T07:18:43.379Z,14.59
2018-06-25T07:19:53.579Z,14.52
2018-06-25T07:21:03.755Z,14.7
2018-06-25T07:22:13.806Z,14.52
2018-06-25T07:23:23.998Z,14.67
2018-06-25T07:24:34.166Z,14.52
2018-06-25T07:25:44.365Z,14.51
2018-06-25T07:26:54.246Z,14.52
2018-06-25T07:28:04.382Z,14.5
2018-06-25T07:29:14.721Z,14.52
2018-06-25T07:30:25.324Z,14.52
2018-06-25T07:31:35.475Z,14.6
2018-06-25T07:32:45.704Z,14.5
2018-06-25T07:33:55.909Z,14.45
2018-06-25T07:35:06.149Z,14.51
2018-06-25T07:36:15.977Z,14.52
2018-06-25T07:37:26.155Z,14.59
2018-06-25T07:38:36.332Z,14.74
2018-06-25T07:39:46.130Z,14.66
2018-06-25T07:40:56.516Z,14.65
2018-06-25T07:42:06.751Z,14.75
2018-06-25T07:43:17.133Z,14.69
2018-06-25T07:44:27.321Z,14.74
2018-06-25T07:45:37.521Z,14.85
2018-06-25T07:46:47.693Z,14.91
2018-06-25T07:47:57.871Z,14.98
2018-06-25T07:49:08.042Z,14.95
2018-06-25T07:50:18.231Z,15.09
2018-06-25T07:51:28.414Z,15.03
2018-06-25T07:52:38.590Z,15.09
2018-06-25T07:53:48.755Z,15.03
2018-06-25T07:54:58.924Z,15.11
2018-06-25T07:56:09.288Z,15.03
2018-06-25T07:57:19.433Z,15.03
2018-06-25T07:58:29.791Z,15.05
2018-06-25T07:59:39.935Z,15.08
2018-06-25T08:00:50.115Z,15
2018-06-25T08:02:00.260Z,15.13
2018-06-25T08:03:10.443Z,15.08
2018-06-25T08:04:20.620Z,15.24
2018-06-25T08:05:30.530Z,15.3
2018-06-25T08:06:40.895Z,15.46
2018-06-25T08:07:51.478Z,15.6
2018-06-25T08:09:01.650Z,15.63
2018-06-25T08:10:11.980Z,15.68
2018-06-25T08:11:22.491Z,15.76
2018-06-25T08:12:32.721Z,15.78
2018-06-25T08:13:43.144Z,15.82
2018-06-25T08:14:53.286Z,15.94
2018-06-25T08:16:03.457Z,15.88
2018-06-25T08:17:13.355Z,15.88
2018-06-25T08:18:23.527Z,15.87
2018-06-25T08:19:33.742Z,15.91
2018-06-25T08:20:43.942Z,15.84
2018-06-25T08:21:54.087Z,15.78
2018-06-25T08:23:04.447Z,15.72
2018-06-25T08:24:14.833Z,15.69
2018-06-25T08:25:25.070Z,15.75
2018-06-25T08:26:34.969Z,15.7
2018-06-25T08:27:45.171Z,15.8
2018-06-25T08:28:55.305Z,16.04
2018-06-25T08:30:05.730Z,16.16
2018-06-25T08:31:16.123Z,16.2
2018-06-25T08:32:26.294Z,16.32
2018-06-25T08:33:36.460Z,16.42
2018-06-25T08:34:46.727Z,16.43
2018-06-25T08:35:56.985Z,16.56
2018-06-25T08:37:07.490Z,16.49
2018-06-25T08:38:17.694Z,16.51
2018-06-25T08:39:27.841Z,16.51
2018-06-25T08:40:38.007Z,16.59
2018-06-25T08:41:48.121Z,16.56
2018-06-25T08:42:58.602Z,16.74
2018-06-25T08:44:08.797Z,16.8
2018-06-25T08:45:19.170Z,16.91
2018-06-25T08:46:29.310Z,17.09
2018-06-25T08:47:39.471Z,17.14
2018-06-25T08:48:49.668Z,17.39
2018-06-25T08:49:59.851Z,17.54
2018-06-25T08:51:10.036Z,17.76
2018-06-25T08:52:20.166Z,17.98
2018-06-25T08:53:30.404Z,18.02
2018-06-25T08:54:40.609Z,18.13
2018-06-25T08:55:50.631Z,18.35
2018-06-25T08:57:00.942Z,18.38
2018-06-25T08:58:11.240Z,18.63
2018-06-25T08:59:21.509Z,18.82
2018-06-25T09:00:31.673Z,19.08
2018-06-25T09:01:41.593Z,19.18
2018-06-25T09:02:51.788Z,19.09
2018-06-25T09:04:01.989Z,19.1
2018-06-25T09:05:12.354Z,19.09
2018-06-25T09:06:22.731Z,18.95
2018-06-25T09:07:32.909Z,18.65
2018-06-25T09:08:43.086Z,18.44
2018-06-25T09:09:53.637Z,18.28
2018-06-25T09:11:04.493Z,18.19
2018-06-25T09:12:14.679Z,18.26
2018-06-25T09:13:24.832Z,18.56
2018-06-25T09:14:35.011Z,19.15
2018-06-25T09:15:45.397Z,19.74
2018-06-25T09:16:56.581Z,20.27
2018-06-25T09:18:06.736Z,20.88
2018-06-25T09:19:16.936Z,21.34
2018-06-25T09:20:27.103Z,21.37
2018-06-25T09:21:37.272Z,21.19
2018-06-25T09:22:47.528Z,21.08
2018-06-25T09:23:57.692Z,20.79
2018-06-25T09:25:07.914Z,20.6
2018-06-25T09:26:18.092Z,20.17
2018-06-25T09:27:28.428Z,19.7
2018-06-25T09:28:38.774Z,19.33
2018-06-25T09:29:48.987Z,19.25
2018-06-25T09:30:59.168Z,19.48
2018-06-25T09:32:09.396Z,19.86
2018-06-25T09:33:19.585Z,20.26
2018-06-25T09:34:29.763Z,20.51
2018-06-25T09:35:39.935Z,20.72
2018-06-25T09:36:49.868Z,21
2018-06-25T09:38:00.025Z,21.45
2018-06-25T09:39:10.185Z,21.93
2018-06-25T09:40:20.373Z,22.31
2018-06-25T09:41:31.119Z,22.68
2018-06-25T09:42:42.399Z,22.89
2018-06-25T09:43:52.615Z,23.11
2018-06-25T09:45:02.898Z,23.42
2018-06-25T09:46:13.043Z,23.69
2018-06-25T09:47:23.221Z,24.07
2018-06-25T09:48:33.724Z,23.91
2018-06-25T09:49:43.999Z,23.92
2018-06-25T09:50:54.195Z,23.79
2018-06-25T09:52:04.386Z,23.55
2018-06-25T09:53:14.768Z,23.36
2018-06-25T09:54:24.925Z,23.13
2018-06-25T09:55:35.189Z,22.8
2018-06-25T09:56:45.397Z,22.5
2018-06-25T09:57:55.594Z,22.49
2018-06-25T09:59:05.544Z,22.64
2018-06-25T10:00:15.704Z,22.61
2018-06-25T10:01:25.865Z,22.43
2018-06-25T10:02:35.775Z,22.2
2018-06-25T10:03:46.317Z,22.11
2018-06-25T10:04:56.524Z,21.93
2018-06-25T10:06:06.456Z,22.02
2018-06-25T10:07:16.607Z,22.21
2018-06-25T10:08:26.852Z,22.31
2018-06-25T10:09:37.074Z,22.61
2018-06-25T10:10:47.326Z,23.02
2018-06-25T10:11:57.722Z,23.33
2018-06-25T10:13:08.045Z,23.57
2018-06-25T10:14:18.330Z,23.79
2018-06-25T10:15:28.566Z,24.13
2018-06-25T10:16:38.776Z,24.25
2018-06-25T10:17:48.993Z,24.44
2018-06-25T10:18:59.166Z,24.53
2018-06-25T10:20:09.348Z,24.35
2018-06-25T10:21:19.630Z,24.27
2018-06-25T10:22:29.980Z,24.13
2018-06-25T10:23:40.154Z,24.15
2018-06-25T10:24:50.347Z,24.22
2018-06-25T10:26:00.540Z,24.22
2018-06-25T10:27:10.464Z,24.28
2018-06-25T10:28:20.652Z,24.12
2018-06-25T10:29:30.925Z,23.98
2018-06-25T10:30:41.100Z,24.05
2018-06-25T10:31:51.257Z,23.92
2018-06-25T10:33:01.435Z,23.76
2018-06-25T10:34:11.609Z,23.82
2018-06-25T10:35:21.796Z,23.69
2018-06-25T10:36:31.981Z,23.85
2018-06-25T10:37:41.906Z,23.91
2018-06-25T10:38:52.293Z,23.87
2018-06-25T10:40:02.492Z,23.8
2018-06-25T10:41:12.665Z,23.7
2018-06-25T10:42:23.141Z,23.48
2018-06-25T10:43:33.601Z,23.53
2018-06-25T10:44:43.818Z,23.45
2018-06-25T10:45:54.206Z,23.39
2018-06-25T10:47:04.401Z,23.31
2018-06-25T10:48:14.753Z,23.21
2018-06-25T10:49:24.953Z,23.08
2018-06-25T10:50:35.104Z,23.02
2018-06-25T10:51:45.371Z,22.76
2018-06-25T10:52:55.722Z,22.5
2018-06-25T10:54:05.885Z,22.38
2018-06-25T10:55:16.063Z,22.2
2018-06-25T10:56:26.379Z,22.15
2018-06-25T10:57:36.542Z,22.16
2018-06-25T10:58:46.497Z,22.13
2018-06-25T10:59:57.217Z,21.97
2018-06-25T11:01:08.674Z,21.93
2018-06-25T11:02:19.281Z,21.97
2018-06-25T11:03:29.576Z,22.05
2018-06-25T11:04:39.800Z,21.94
2018-06-25T11:05:50.120Z,21.97
2018-06-25T11:07:00.119Z,22.13
2018-06-25T11:08:10.689Z,22.09
2018-06-25T11:09:20.629Z,22.16
2018-06-25T11:10:31.013Z,22.28
2018-06-25T11:11:41.177Z,22.35
2018-06-25T11:12:51.996Z,22.45
2018-06-25T11:14:02.242Z,22.55
2018-06-25T11:15:12.407Z,22.48
2018-06-25T11:16:22.339Z,22.49
2018-06-25T11:17:32.604Z,22.63
2018-06-25T11:18:42.771Z,22.43
2018-06-25T11:19:53.000Z,22.43
2018-06-25T11:21:03.442Z,22.42
2018-06-25T11:22:13.597Z,22.55
2018-06-25T11:23:23.256Z,22.61
2018-06-25T11:24:33.535Z,22.63
2018-06-25T11:25:43.720Z,22.68
2018-06-25T11:26:54.267Z,22.52
2018-06-25T11:28:05.404Z,22.67
2018-06-25T11:29:15.661Z,22.85
2018-06-25T11:30:25.863Z,22.86
2018-06-25T11:31:36.074Z,22.79
2018-06-25T11:32:46.262Z,22.67
2018-06-25T11:33:56.445Z,22.46
2018-06-25T11:35:06.607Z,22.28
2018-06-25T11:36:16.809Z,22.13
2018-06-25T11:37:27.062Z,21.94
2018-06-25T11:38:37.224Z,21.76
2018-06-25T11:39:47.471Z,21.56
2018-06-25T11:40:58.049Z,21.43
2018-06-25T11:42:08.324Z,21.31
2018-06-25T11:43:18.545Z,21.2
2018-06-25T11:44:28.744Z,21.09
2018-06-25T11:45:38.905Z,21.09
2018-06-25T11:46:49.375Z,21.09
2018-06-25T11:47:59.281Z,21
2018-06-25T11:49:09.530Z,21
2018-06-25T11:50:19.985Z,21.01
2018-06-25T11:51:30.099Z,20.82
2018-06-25T11:52:40.305Z,20.79
2018-06-25T11:53:50.521Z,20.66
2018-06-25T11:55:00.720Z,20.57
2018-06-25T11:56:10.933Z,20.46
2018-06-25T11:57:21.077Z,20.46
2018-06-25T11:58:31.608Z,20.46
2018-06-25T11:59:41.769Z,20.48
2018-06-25T12:00:51.690Z,20.51
2018-06-25T12:02:02.105Z,20.39
2018-06-25T12:03:13.346Z,20.36
2018-06-25T12:04:24.626Z,20.41
2018-06-25T12:05:34.820Z,20.34
2018-06-25T12:06:45.379Z,20.31
2018-06-25T12:07:55.606Z,20.31
2018-06-25T12:09:05.892Z,20.31
2018-06-25T12:10:16.059Z,20.35
2018-06-25T12:11:26.300Z,20.35
2018-06-25T12:12:36.190Z,20.31
2018-06-25T12:13:46.362Z,20.31
2018-06-25T12:14:56.427Z,20.35
2018-06-25T12:16:06.684Z,20.39
2018-06-25T12:17:16.604Z,20.38
2018-06-25T12:18:26.807Z,20.48
2018-06-25T12:19:36.718Z,20.42
2018-06-25T12:20:46.960Z,20.45
2018-06-25T12:21:57.107Z,20.43
2018-06-25T12:23:07.608Z,20.42
2018-06-25T12:24:18.284Z,20.42
2018-06-25T12:25:28.540Z,20.34
2018-06-25T12:26:38.712Z,20.3
2018-06-25T12:27:49.115Z,20.31
2018-06-25T12:28:59.379Z,20.3
2018-06-25T12:30:09.776Z,20.28
2018-06-25T12:31:20.264Z,20.21
2018-06-25T12:32:30.452Z,20.19
2018-06-25T12:33:40.621Z,20.24
2018-06-25T12:34:50.847Z,20.16
2018-06-25T12:36:01.263Z,20.23
2018-06-25T12:37:11.651Z,20.17
2018-06-25T12:38:22.033Z,20.07
2018-06-25T12:39:32.204Z,20.05
2018-06-25T12:40:42.405Z,19.98
2018-06-25T12:41:52.633Z,19.98
2018-06-25T12:43:02.877Z,19.92
2018-06-25T12:44:13.183Z,19.85
2018-06-25T12:45:23.376Z,19.82
2018-06-25T12:46:33.569Z,19.8
2018-06-25T12:47:43.282Z,19.82
2018-06-25T12:48:53.467Z,19.79
2018-06-25T12:50:03.651Z,19.89
2018-06-25T12:51:13.917Z,19.88
2018-06-25T12:52:24.136Z,19.95
2018-06-25T12:53:34.360Z,19.98
2018-06-25T12:54:44.579Z,20
2018-06-25T12:55:54.585Z,20.05
2018-06-25T12:57:05.046Z,20.14
2018-06-25T12:58:15.388Z,20.16
2018-06-25T12:59:25.609Z,20.23
2018-06-25T13:00:35.787Z,20.31
2018-06-25T13:01:46.239Z,20.36
2018-06-25T13:02:56.235Z,20.39
2018-06-25T13:04:06.479Z,20.46
2018-06-25T13:05:16.659Z,20.43
2018-06-25T13:06:26.843Z,20.46
2018-06-25T13:07:36.785Z,20.6
2018-06-25T13:08:47.247Z,20.61
2018-06-25T13:09:57.444Z,20.75
2018-06-25T13:11:07.634Z,20.82
2018-06-25T13:12:18.050Z,20.9
2018-06-25T13:13:28.228Z,20.97
2018-06-25T13:14:38.417Z,20.96
2018-06-25T13:15:48.626Z,20.85
2018-06-25T13:16:59.048Z,20.72
2018-06-25T13:18:09.243Z,20.67
2018-06-25T13:19:19.623Z,20.63
2018-06-25T13:20:29.918Z,20.64
2018-06-25T13:21:40.197Z,20.68
2018-06-25T13:22:50.631Z,20.76
2018-06-25T13:24:00.785Z,20.79
2018-06-25T13:25:10.812Z,20.82
2018-06-25T13:26:21.028Z,20.73
2018-06-25T13:27:31.246Z,20.75
2018-06-25T13:28:41.432Z,20.64
2018-06-25T13:29:51.826Z,20.61
2018-06-25T13:31:02.273Z,20.57
2018-06-25T13:32:12.831Z,20.46
2018-06-25T13:33:22.978Z,20.46
2018-06-25T13:34:33.158Z,20.53
2018-06-25T13:35:43.342Z,20.48
2018-06-25T13:36:53.615Z,20.54
2018-06-25T13:38:03.847Z,20.6
2018-06-25T13:39:14.028Z,20.51
2018-06-25T13:40:24.216Z,20.49
2018-06-25T13:41:34.529Z,20.51
2018-06-25T13:42:44.708Z,20.49
2018-06-25T13:43:54.903Z,20.53
2018-06-25T13:45:05.086Z,20.42
2018-06-25T13:46:15.257Z,20.38
2018-06-25T13:47:25.519Z,20.49
2018-06-25T13:48:35.752Z,20.43
2018-06-25T13:49:45.897Z,20.41
2018-06-25T13:50:56.213Z,20.54
2018-06-25T13:52:06.429Z,20.54
2018-06-25T13:53:16.668Z,20.58
2018-06-25T13:54:26.860Z,20.6
2018-06-25T13:55:37.158Z,20.67
2018-06-25T13:56:47.390Z,20.67
2018-06-25T13:57:57.544Z,20.51
2018-06-25T13:59:07.415Z,20.43
2018-06-25T14:00:17.612Z,20.28
2018-06-25T14:01:27.786Z,20.2
2018-06-25T14:02:37.953Z,20
2018-06-25T14:03:48.362Z,19.89
2018-06-25T14:04:58.727Z,19.88
2018-06-25T14:06:09.013Z,19.79
2018-06-25T14:07:19.281Z,19.64
2018-06-25T14:08:29.651Z,19.61
2018-06-25T14:09:39.889Z,19.65
2018-06-25T14:10:49.884Z,19.53
2018-06-25T14:12:00.131Z,19.52
2018-06-25T14:13:10.355Z,19.49
2018-06-25T14:14:20.626Z,19.55
2018-06-25T14:15:30.784Z,19.55
2018-06-25T14:16:41.650Z,19.6
2018-06-25T14:17:52.177Z,19.52
2018-06-25T14:19:02.374Z,19.58
2018-06-25T14:20:12.586Z,19.63
2018-06-25T14:21:22.868Z,19.7
2018-06-25T14:22:33.139Z,19.58
2018-06-25T14:23:43.403Z,19.63
2018-06-25T14:24:53.630Z,19.68
2018-06-25T14:26:03.566Z,19.7
2018-06-25T14:27:13.764Z,19.56
2018-06-25T14:28:24.284Z,19.53
2018-06-25T14:29:34.527Z,19.52
2018-06-25T14:30:44.754Z,19.49
2018-06-25T14:31:54.927Z,19.37
2018-06-25T14:33:05.152Z,19.3
2018-06-25T14:34:15.435Z,19.31
2018-06-25T14:35:25.666Z,19.35
2018-06-25T14:36:35.874Z,19.3
2018-06-25T14:37:46.061Z,19.33
2018-06-25T14:38:56.293Z,19.3
2018-06-25T14:40:06.548Z,19.13
2018-06-25T14:41:16.867Z,19.13
2018-06-25T14:42:27.037Z,19.16
2018-06-25T14:43:37.437Z,19.12
2018-06-25T14:44:47.786Z,19.08
2018-06-25T14:45:58.113Z,19.05
2018-06-25T14:47:08.260Z,19.08
2018-06-25T14:48:18.594Z,18.95
2018-06-25T14:49:28.422Z,19.05
2018-06-25T14:50:38.607Z,18.9
2018-06-25T14:51:48.606Z,18.8
2018-06-25T14:52:59.027Z,18.71
2018-06-25T14:54:09.222Z,18.59
2018-06-25T14:55:19.198Z,18.55
2018-06-25T14:56:29.593Z,18.62
2018-06-25T14:57:39.876Z,18.56
2018-06-25T14:58:50.062Z,18.59
2018-06-25T15:00:00.405Z,18.62
2018-06-25T15:01:10.607Z,18.56
2018-06-25T15:02:20.773Z,18.38
2018-06-25T15:03:31.013Z,18.4
2018-06-25T15:04:41.254Z,18.41
2018-06-25T15:05:51.428Z,18.56
2018-06-25T15:07:01.679Z,18.56